Inspiration — C6FM5 — position and weather

sailwx.info

Track history (hours):
 
Tides and Currents Weather Stations Pressure Air Temp Water Temp Dewpoint Dewpoint Depression Visibility Wind Speed Wind Dir Waves Ship Positions

Inspiration

Operator: Carnival Cruise Lines

Last reported at 2017-May-28 06:00 UTC. Time now 2017-May-28 06:48 UTC.
Position N 31°18' W 116°54'.

Type: Ship. MMSI: 309484000.

Wind from 340 at 25 knots

Barometer 1018.3 mb
Air temperature 15.0 ° C
Visibility: greater than 5.4 NM
Dewpoint 11.6 ° C
Water temperature 16.0 ° C

Date/timePositionNaut miles runAvg speedWind from/ knotsBaromVisibWave heightAir tempDewpointWater temp
2017-May-28 06:00N 31°18' W 116°54'738.8 340 / 251018.3 5.4 15.011.616.0
2017-May-28 05:49N 31°24' W 116°58'17 5.9
2017-May-28 03:00N 31°12' W 117°12'16 7.5 300 / 301022.310.8 17.013.715.0
2017-May-28 00:52N 31°11' W 117°31'5 6.5
2017-May-28 00:06N 31°09' W 117°36'7 6.0
2017-May-27 22:53N 31°11' W 117°44'3 6.7
2017-May-27 22:30N 31°13' W 117°47'5 6.6
2017-May-27 21:42N 31°18' W 117°47'3 6.5
2017-May-27 21:17N 31°21' W 117°48'2 6.5
2017-May-27 20:57N 31°23' W 117°48'3 6.4
2017-May-27 20:30N 31°26' W 117°49'4 6.4
2017-May-27 19:48N 31°27' W 117°54'2 6.6
2017-May-27 19:30N 31°27' W 117°56'3 6.4
2017-May-27 19:00N 31°29' W 117°59'3 6.1
2017-May-27 18:29N 31°32' W 118°00'3 6.3
2017-May-27 18:00N 31°34' W 117°58'5694.3
2017-May-27 18:00N 31°30' W 117°54'816.4 300 / 15 15.011.616.0
2017-May-27 17:30N 31°37' W 117°58'4 7.0
2017-May-27 17:00N 31°40' W 118°00'3 6.9
2017-May-27 16:30N 31°43' W 118°02'3 6.7
2017-May-27 16:00N 31°46' W 118°04'3 6.7
2017-May-27 15:30N 31°49' W 118°06'3 6.4
2017-May-27 15:00N 31°52' W 118°07'3 6.4
2017-May-27 14:30N 31°55' W 118°08'6 6.4
2017-May-27 13:30N 32°01' W 118°05'3 6.2
2017-May-27 13:00N 32°04' W 118°04'3 6.6
2017-May-27 12:30N 32°07' W 118°02'3 6.9
2017-May-27 12:00N 32°10' W 118°00'3 6.7
2017-May-27 11:30N 32°13' W 117°59'3 6.4
2017-May-27 11:00N 32°16' W 117°57'3 6.2
2017-May-27 10:30N 32°18' W 117°54'3 6.6
2017-May-27 10:00N 32°22' W 117°54'3 6.9
2017-May-27 09:30N 32°25' W 117°53'4 7.2
2017-May-27 09:00N 32°28' W 117°51'4 8.3
2017-May-27 08:30N 32°32' W 117°49'510.6
2017-May-27 08:00N 32°37' W 117°48'611.2
2017-May-27 07:30N 32°42' W 117°49'611.5
2017-May-27 07:00N 32°48' W 117°51'611.5
2017-May-27 06:30N 32°53' W 117°54'611.2
2017-May-27 06:00N 32°58' W 117°56'2162.0
2017-May-27 06:00N 33°00' W 117°54'510.4 280 / 151018.3
2017-May-27 05:30N 33°03' W 117°58'510.4
2017-May-27 05:00N 33°08' W 118°01'510.4
2017-May-27 04:30N 33°13' W 118°03'510.3
2017-May-27 04:00N 33°18' W 118°05'510.5
2017-May-27 03:30N 33°23' W 118°08'510.8
2017-May-27 03:00N 33°28' W 118°10'510.7
2017-May-27 02:30N 33°33' W 118°12'510.6
2017-May-27 02:00N 33°38' W 118°13'5 9.1
2017-May-27 01:29N 33°43' W 118°11'2 0.7
2017-May-26 22:03N 33°45' W 118°11'0 0.0
2017-May-26 21:57N 33°45' W 118°11'0 0.0
2017-May-26 20:39N 33°45' W 118°11'0 0.0
2017-May-26 20:20N 33°45' W 118°11'0 0.0
2017-May-26 19:38N 33°45' W 118°11'0 0.0
2017-May-26 19:14N 33°45' W 118°11'0 0.0
2017-May-26 17:37N 33°45' W 118°11'0 0.0
2017-May-26 17:07N 33°45' W 118°11'0 0.0
2017-May-26 16:55N 33°45' W 118°11'0 0.0
2017-May-26 15:55N 33°45' W 118°11'0 0.0
2017-May-26 15:30N 33°45' W 118°11'0 0.0
2017-May-26 14:48N 33°45' W 118°11'0 0.0
2017-May-26 14:30N 33°45' W 118°11'0 0.0
2017-May-26 13:30N 33°45' W 118°11'0 0.0
2017-May-26 12:59N 33°45' W 118°11'0 0.1
2017-May-26 12:31N 33°45' W 118°11'1 1.4
2017-May-26 12:00N 33°44' W 118°11'4 9.0
2017-May-26 11:30N 33°40' W 118°10'4 8.8
2017-May-26 11:00N 33°36' W 118°10'611.3
2017-May-26 10:30N 33°30' W 118°07'713.7
2017-May-26 10:00N 33°24' W 118°05'816.4
2017-May-26 09:30N 33°16' W 118°01'816.5
2017-May-26 09:01N 33°09' W 117°57'815.9
2017-May-26 08:30N 33°01' W 117°53'815.6
2017-May-26 08:01N 32°54' W 117°51'815.7
2017-May-26 07:30N 32°46' W 117°48'815.9
2017-May-26 07:00N 32°39' W 117°45'816.0
2017-May-26 06:30N 32°32' W 117°41'815.9
2017-May-26 06:01N 32°25' W 117°37'9511.0
2017-May-26 06:00N 32°18' W 117°30'2 3.5 300 / 161018.3 5.4
2017-May-26 05:31N 32°18' W 117°32'815.6
2017-May-26 05:01N 32°11' W 117°27'815.5
2017-May-26 04:30N 32°05' W 117°21'915.2
2017-May-26 03:53N 32°00' W 117°12'2814.9
2017-May-26 02:00N 31°48' W 116°42'312.6 300 / 81021.310.8 18.013.117.0
2017-May-26 01:47N 31°50' W 116°39'1 0.1
2017-May-25 13:56N 31°50' W 116°40'4 8.7
2017-May-25 13:30N 31°51' W 116°45'6 8.2
2017-May-25 12:48N 31°54' W 116°50'3 8.2
2017-May-25 12:25N 31°55' W 116°54'6 8.2
2017-May-25 11:43N 31°56' W 117°01'2 8.7
2017-May-25 11:28N 31°57' W 117°03'4 8.9
2017-May-25 11:00N 31°58' W 117°08'5 9.1
2017-May-25 10:30N 31°59' W 117°13'5 9.1
2017-May-25 10:00N 32°01' W 117°17'5 9.1
2017-May-25 09:30N 32°04' W 117°21'4 8.8
2017-May-25 09:00N 32°06' W 117°26'4284.4
2017-May-25 09:00N 32°06' W 117°30'2 4.2 270 / 201017.210.8
2017-May-25 08:30N 32°08' W 117°30'4 8.0
2017-May-25 08:01N 32°11' W 117°34'4 8.4
2017-May-25 07:30N 32°14' W 117°36'4 8.5
2017-May-25 07:00N 32°18' W 117°38'4 8.3
2017-May-25 06:30N 32°22' W 117°41'4 8.3
2017-May-25 06:00N 32°26' W 117°43'2107.0
2017-May-25 06:00N 32°24' W 117°42'612.2 300 / 51017.3 15.011.615.0
2017-May-25 05:30N 32°29' W 117°45'510.2
2017-May-25 05:00N 32°34' W 117°48'510.7
2017-May-25 04:30N 32°39' W 117°51'511.0
2017-May-25 04:00N 32°44' W 117°53'611.2
2017-May-25 03:30N 32°49' W 117°56'611.0
2017-May-25 03:00N 32°54' W 117°58'4221.3
2017-May-25 03:00N 32°54' W 117°54'815.7 300 / 151020.310.8 17.013.715.0
2017-May-25 02:30N 32°59' W 118°01'510.6
2017-May-25 02:00N 33°04' W 118°03'510.6
2017-May-25 01:30N 33°08' W 118°07'510.7
2017-May-25 01:00N 33°12' W 118°11'610.8
2017-May-25 00:30N 33°17' W 118°14'5 9.4
2017-May-25 00:00N 33°21' W 118°18'1 1.8
2017-May-24 23:29N 33°21' W 118°19'0 0.1
2017-May-24 22:49N 33°21' W 118°19'0 0.1
2017-May-24 22:25N 33°21' W 118°19'0 0.1
2017-May-24 21:58N 33°21' W 118°19'0 0.1
2017-May-24 21:28N 33°21' W 118°19'0 0.1
2017-May-24 20:58N 33°21' W 118°19'0 0.0
2017-May-24 20:30N 33°21' W 118°19'0 0.1
2017-May-24 20:00N 33°21' W 118°19'0 0.1
2017-May-24 19:24N 33°21' W 118°19'0 0.0
2017-May-24 19:00N 33°21' W 118°19'0 0.0
2017-May-24 18:29N 33°21' W 118°19'0 0.0
2017-May-24 17:59N 33°21' W 118°19'0 0.0
2017-May-24 17:29N 33°21' W 118°19'0 0.0
2017-May-24 16:59N 33°21' W 118°19'0 0.0
2017-May-24 16:29N 33°21' W 118°19'0 0.0
2017-May-24 15:58N 33°21' W 118°19'0 0.0
2017-May-24 15:28N 33°21' W 118°19'0 0.0
2017-May-24 14:55N 33°21' W 118°19'1 1.1
2017-May-24 14:00N 33°20' W 118°18'3 6.2
2017-May-24 13:30N 33°18' W 118°17'3 6.8
2017-May-24 13:00N 33°14' W 118°16'3 6.6
2017-May-24 12:30N 33°11' W 118°16'3 6.8
2017-May-24 12:00N 33°07' W 118°16'3 6.8
2017-May-24 11:30N 33°05' W 118°13'3 6.8
2017-May-24 11:00N 33°02' W 118°10'3 6.8
2017-May-24 10:30N 32°60' W 118°08'3 6.7
2017-May-24 10:00N 32°57' W 118°05'5336.3
2017-May-24 10:00N 32°54' W 118°00'2 3.5 310 / 101018.3 13.0 9.416.0
2017-May-24 09:30N 32°55' W 118°02'4 7.1
2017-May-24 09:00N 32°52' W 117°59'3 6.5
2017-May-24 08:30N 32°49' W 117°57'3 6.5
2017-May-24 08:00N 32°47' W 117°54'3 6.8
2017-May-24 07:30N 32°44' W 117°52'3 6.9
2017-May-24 07:00N 32°42' W 117°49'3 6.9
2017-May-24 06:30N 32°39' W 117°47'3 6.8
2017-May-24 06:00N 32°36' W 117°48'3 7.0
2017-May-24 05:30N 32°32' W 117°50'3 6.8
2017-May-24 05:00N 32°29' W 117°51'3177.4
2017-May-24 05:00N 32°30' W 117°48'611.6 290 / 151018.3 5.4 15.011.615.0
2017-May-24 04:30N 32°26' W 117°53'3 6.8
2017-May-24 04:00N 32°23' W 117°55'3 6.5
2017-May-24 03:30N 32°20' W 117°56'3 6.4
2017-May-24 03:00N 32°17' W 117°58'6389.5
2017-May-24 03:00N 32°12' W 117°54'510.2 320 / 121017.2 5.4 16.012.715.0
2017-May-24 02:30N 32°14' W 117°59'3 6.7
2017-May-24 02:00N 32°11' W 118°01'3 6.9
2017-May-24 01:30N 32°08' W 118°03'4 7.3
2017-May-24 01:00N 32°05' W 118°04'4 7.5
2017-May-24 00:30N 32°01' W 118°06'4 7.4
2017-May-24 00:00N 31°58' W 118°08'3 6.9
2017-May-23 23:30N 31°55' W 118°09'3 6.7
2017-May-23 23:00N 31°52' W 118°11'3 6.8
2017-May-23 22:30N 31°49' W 118°13'3 6.6
2017-May-23 22:00N 31°46' W 118°14'4259.5
2017-May-23 22:00N 31°42' W 118°12'3 6.4 050 / 201018.327.0 15.011.616.0
2017-May-23 21:30N 31°42' W 118°16'4 8.2
2017-May-23 21:00N 31°39' W 118°13'3 6.7
2017-May-23 20:30N 31°37' W 118°09'3 6.3
2017-May-23 20:00N 31°36' W 118°06'3 6.3
2017-May-23 19:30N 31°34' W 118°03'3 6.7
2017-May-23 19:00N 31°32' W 117°60'3 7.0
2017-May-23 18:30N 31°30' W 117°56'3 6.8
2017-May-23 18:00N 31°29' W 117°53'3 6.2
2017-May-23 17:30N 31°30' W 117°49'3 6.4
2017-May-23 17:00N 31°33' W 117°48'3 6.7
2017-May-23 16:30N 31°36' W 117°48'3 6.8
2017-May-23 16:00N 31°40' W 117°48'3 6.9
2017-May-23 15:30N 31°43' W 117°48'4 7.0
2017-May-23 15:00N 31°47' W 117°48'5328.2
2017-May-23 15:00N 31°48' W 117°42'510.5 340 / 101017.2 5.4 17.013.715.0
2017-May-23 14:30N 31°50' W 117°47'7 7.4
2017-May-23 13:30N 31°57' W 117°47'4 7.1
2017-May-23 13:00N 32°01' W 117°47'3 6.4
2017-May-23 12:30N 32°04' W 117°47'3 6.4
2017-May-23 12:00N 32°07' W 117°46'3 6.7
2017-May-23 11:30N 32°11' W 117°46'3 6.8
2017-May-23 11:00N 32°14' W 117°46'3 6.6
2017-May-23 10:30N 32°17' W 117°46'3 6.8
2017-May-23 10:00N 32°21' W 117°46'3 6.8
2017-May-23 09:30N 32°24' W 117°45'3 6.7
2017-May-23 09:00N 32°28' W 117°45'4 8.2
2017-May-23 08:30N 32°32' W 117°45'510.7
2017-May-23 08:00N 32°37' W 117°45'510.8
2017-May-23 07:30N 32°42' W 117°47'510.8
2017-May-23 07:00N 32°47' W 117°49'510.8
2017-May-23 06:30N 32°52' W 117°51'510.9
2017-May-23 06:00N 32°58' W 117°53'5348.7
2017-May-23 06:00N 32°54' W 117°48'1021.6 290 / 101017.2 5.4 15.011.616.0
2017-May-23 05:30N 33°03' W 117°55'510.6
2017-May-23 05:00N 33°07' W 117°58'510.5
2017-May-23 04:30N 33°12' W 118°01'510.4
2017-May-23 04:00N 33°16' W 118°04'510.6
2017-May-23 03:30N 33°21' W 118°07'511.0
2017-May-23 03:00N 33°26' W 118°09'611.1
2017-May-23 02:30N 33°31' W 118°12'611.1
2017-May-23 02:00N 33°37' W 118°13'510.0
2017-May-23 01:30N 33°42' W 118°11'3 6.7
2017-May-23 01:00N 33°45' W 118°11'0 0.1
2017-May-23 00:28N 33°45' W 118°11'0 0.0
2017-May-23 00:00N 33°45' W 118°11'0 0.0
2017-May-22 23:28N 33°45' W 118°11'0 0.0
2017-May-22 22:58N 33°45' W 118°11'0 0.0
2017-May-22 22:28N 33°45' W 118°11'0 0.0
2017-May-22 22:01N 33°45' W 118°11'0 0.0
2017-May-22 21:31N 33°45' W 118°11'0 0.0
2017-May-22 21:01N 33°45' W 118°11'0 0.0
2017-May-22 20:31N 33°45' W 118°11'0 0.0
2017-May-22 20:01N 33°45' W 118°11'0 0.0
2017-May-22 19:31N 33°45' W 118°11'0 0.0
2017-May-22 19:01N 33°45' W 118°11'0 0.0
2017-May-22 18:30N 33°45' W 118°11'0 0.0
2017-May-22 18:00N 33°45' W 118°11'0 0.0
2017-May-22 17:31N 33°45' W 118°11'0 0.0
2017-May-22 17:00N 33°45' W 118°11'0 0.0
2017-May-22 16:30N 33°45' W 118°11'0 0.0
2017-May-22 16:01N 33°45' W 118°11'0 0.0
2017-May-22 15:31N 33°45' W 118°11'0 0.0
2017-May-22 15:00N 33°45' W 118°11'5366.8
2017-May-22 15:00N 33°42' W 118°06'5 5.4 1020.3 2.2 17.013.715.0
2017-May-22 14:01N 33°45' W 118°11'0 0.0
2017-May-22 13:31N 33°45' W 118°11'0 0.0
2017-May-22 13:00N 33°45' W 118°11'0 0.3
2017-May-22 12:30N 33°45' W 118°11'1 1.7
2017-May-22 12:01N 33°44' W 118°11'4 7.3
2017-May-22 11:30N 33°40' W 118°11'5 9.5
2017-May-22 11:01N 33°36' W 118°10'510.4
2017-May-22 10:30N 33°31' W 118°08'510.5
2017-May-22 10:00N 33°26' W 118°05'510.4
2017-May-22 09:31N 33°21' W 118°03'714.7
2017-May-22 09:00N 33°14' W 118°01'816.4
2017-May-22 08:30N 33°06' W 117°57'816.0
2017-May-22 08:00N 32°59' W 117°54'815.9
2017-May-22 07:30N 32°51' W 117°51'816.0
2017-May-22 07:00N 32°44' W 117°47'815.9
2017-May-22 06:30N 32°37' W 117°44'815.8
2017-May-22 06:00N 32°29' W 117°40'815.8
2017-May-22 05:30N 32°23' W 117°35'815.5
2017-May-22 05:00N 32°16' W 117°30'2112.3
2017-May-22 05:00N 32°18' W 117°30'918.7 300 / 121018.3 5.4 15.011.615.0
2017-May-22 04:30N 32°11' W 117°23'815.4
2017-May-22 04:00N 32°07' W 117°15'815.4
2017-May-22 03:30N 32°02' W 117°08'715.0
2017-May-22 03:00N 31°59' W 117°00'714.5
2017-May-22 02:30N 31°55' W 116°53'714.3
2017-May-22 02:00N 31°52' W 116°45'6 0.5
2017-May-21 14:00N 31°50' W 116°39'3 7.0
2017-May-21 13:30N 31°50' W 116°43'3 6.3
2017-May-21 13:00N 31°50' W 116°47'3 6.4
2017-May-21 12:28N 31°50' W 116°51'3 7.0
2017-May-21 12:00N 31°48' W 116°54'2190.6 320 / 141021.310.8 17.013.716.0
2017-May-21 11:59N 31°50' W 116°55'3 6.8
2017-May-21 11:30N 31°50' W 116°59'3 6.8
2017-May-21 11:00N 31°50' W 117°03'3 6.8
2017-May-21 10:30N 31°50' W 117°07'3 6.7
2017-May-21 10:00N 31°50' W 117°10'3 5.8
2017-May-21 09:30N 31°48' W 117°13'3 6.4
2017-May-21 09:00N 31°45' W 117°12'3 6.4
2017-May-21 08:30N 31°42' W 117°10'3 6.7
2017-May-21 08:00N 31°39' W 117°08'3 6.5
2017-May-21 07:30N 31°36' W 117°07'3 6.5
2017-May-21 07:00N 31°33' W 117°05'3 6.4
2017-May-21 06:30N 31°30' W 117°04'3 6.5
2017-May-21 06:00N 31°28' W 117°01'161040.9
2017-May-21 06:00N 31°12' W 117°00'1327.0 340 / 151018.310.8 16.012.716.0
2017-May-21 05:30N 31°25' W 116°60'3 6.5
2017-May-21 05:00N 31°22' W 116°59'3 6.4
2017-May-21 04:30N 31°19' W 116°57'3 5.9
2017-May-21 04:00N 31°17' W 116°59'3 6.6
2017-May-21 03:30N 31°16' W 117°03'3 6.6
2017-May-21 03:00N 31°15' W 117°07'4341.3
2017-May-21 03:00N 31°12' W 117°06'5 9.9 290 / 151022.310.8 18.013.116.0
2017-May-21 02:30N 31°15' W 117°10'3 6.6
2017-May-21 02:00N 31°14' W 117°14'3 6.5
2017-May-21 01:30N 31°14' W 117°18'3 6.5
2017-May-21 01:00N 31°13' W 117°22'3 6.4
2017-May-21 00:30N 31°12' W 117°25'3 6.4
2017-May-21 00:00N 31°12' W 117°29'3 6.6
2017-May-20 23:30N 31°11' W 117°33'3 6.3
2017-May-20 23:00N 31°10' W 117°36'3 6.4
2017-May-20 22:31N 31°09' W 117°40'3 6.4
2017-May-20 22:00N 31°09' W 117°44'3 5.7
2017-May-20 21:30N 31°11' W 117°45'3 6.7
2017-May-20 21:00N 31°15' W 117°46'4 6.5
2017-May-20 20:21N 31°18' W 117°49'2 6.6
2017-May-20 20:00N 31°18' W 117°52'3 6.7
2017-May-20 19:30N 31°19' W 117°56'3 6.7
2017-May-20 19:00N 31°19' W 117°59'4 7.1
2017-May-20 18:30N 31°21' W 118°03'3 6.8
2017-May-20 18:00N 31°24' W 118°05'4291.7
2017-May-20 18:00N 31°24' W 118°00'612.1 350 / 151018.3 16.012.716.0
2017-May-20 17:30N 31°27' W 118°06'3 6.9
2017-May-20 17:00N 31°31' W 118°06'4 7.0
2017-May-20 16:30N 31°34' W 118°06'3 6.9
2017-May-20 16:00N 31°38' W 118°07'3 6.8
2017-May-20 15:30N 31°41' W 118°07'3 6.7
2017-May-20 15:00N 31°44' W 118°07'7 6.8
2017-May-20 14:00N 31°51' W 118°08'3 6.6
2017-May-20 13:30N 31°55' W 118°08'3 6.5
2017-May-20 13:00N 31°58' W 118°07'3 6.6
2017-May-20 12:30N 32°01' W 118°05'3 6.6
2017-May-20 12:00N 32°04' W 118°04'3 6.5
2017-May-20 11:30N 32°07' W 118°02'4 7.2
2017-May-20 11:00N 32°10' W 118°01'510.4
2017-May-20 10:30N 32°15' W 117°58'510.5
2017-May-20 10:00N 32°20' W 117°55'510.5
2017-May-20 09:30N 32°24' W 117°53'510.7
2017-May-20 09:00N 32°29' W 117°50'510.8
2017-May-20 08:30N 32°34' W 117°48'510.1
2017-May-20 08:00N 32°39' W 117°47'510.4
2017-May-20 07:30N 32°44' W 117°49'510.5
2017-May-20 07:00N 32°49' W 117°52'510.6
2017-May-20 06:30N 32°54' W 117°54'510.6
2017-May-20 06:00N 32°59' W 117°56'5316.4
2017-May-20 06:00N 32°54' W 117°54'1021.5 350 / 51018.3 15.011.615.0
2017-May-20 05:30N 33°04' W 117°59'510.6
2017-May-20 05:00N 33°09' W 118°01'510.6
2017-May-20 04:30N 33°13' W 118°04'510.9
2017-May-20 04:00N 33°18' W 118°06'611.0
2017-May-20 03:30N 33°24' W 118°08'510.7
2017-May-20 03:00N 33°29' W 118°10'510.9
2017-May-20 02:30N 33°34' W 118°12'510.7
2017-May-20 02:00N 33°39' W 118°12'5 9.4
2017-May-20 01:30N 33°44' W 118°11'1 2.5
2017-May-20 01:00N 33°45' W 118°11'0 0.0
2017-May-20 00:30N 33°45' W 118°11'0 0.0
2017-May-20 00:00N 33°45' W 118°11'0 0.0
2017-May-19 23:30N 33°45' W 118°11'0 0.0
2017-May-19 22:59N 33°45' W 118°11'0 0.0
2017-May-19 22:29N 33°45' W 118°11'0 0.0
2017-May-19 21:59N 33°45' W 118°11'0 0.0
2017-May-19 21:29N 33°45' W 118°11'0 0.0
2017-May-19 20:59N 33°45' W 118°11'0 0.0
2017-May-19 20:28N 33°45' W 118°11'0 0.0
2017-May-19 19:58N 33°45' W 118°11'0 0.0
2017-May-19 19:28N 33°45' W 118°11'0 0.0
2017-May-19 18:58N 33°45' W 118°11'0 0.0
2017-May-19 18:30N 33°45' W 118°11'0 0.0
2017-May-19 18:00N 33°45' W 118°11'0 0.0
2017-May-19 17:30N 33°45' W 118°11'0 0.0
2017-May-19 17:00N 33°45' W 118°11'0 0.0
2017-May-19 16:30N 33°45' W 118°11'0 0.0
2017-May-19 15:59N 33°45' W 118°11'0 0.0
2017-May-19 15:29N 33°45' W 118°11'0 0.0
2017-May-19 14:59N 33°45' W 118°11'5 5.3
2017-May-19 14:00N 33°42' W 118°06'579.1 1021.310.8 17.013.715.0
2017-May-19 13:55N 33°45' W 118°11'0 0.0
2017-May-19 13:28N 33°45' W 118°11'0 0.0
2017-May-19 12:49N 33°45' W 118°11'0 0.0
2017-May-19 12:30N 33°45' W 118°11'0 0.8
2017-May-19 12:00N 33°45' W 118°11'4 8.6
2017-May-19 11:30N 33°40' W 118°11'5 9.6
2017-May-19 11:01N 33°36' W 118°09'510.3
2017-May-19 10:30N 33°31' W 118°07'510.2
2017-May-19 10:00N 33°26' W 118°05'612.4
2017-May-19 09:30N 33°20' W 118°03'816.2
2017-May-19 09:01N 33°13' W 117°59'816.2
2017-May-19 08:30N 33°05' W 117°56'816.1
2017-May-19 08:01N 32°58' W 117°53'816.1
2017-May-19 07:31N 32°50' W 117°50'816.0
2017-May-19 07:01N 32°42' W 117°47'815.7
2017-May-19 06:31N 32°35' W 117°43'815.5
2017-May-19 06:01N 32°28' W 117°39'13744.5
2017-May-19 06:00N 32°18' W 117°30'510.4 280 / 151018.3 16.012.716.0
2017-May-19 05:30N 32°21' W 117°34'815.2
2017-May-19 05:01N 32°15' W 117°29'815.3
2017-May-19 04:31N 32°10' W 117°23'815.2
2017-May-19 04:01N 32°05' W 117°16'815.1
2017-May-19 03:30N 32°01' W 117°09'14 0.9
2017-May-18 12:00N 31°54' W 116°54'2111.2 290 / 101021.310.8 16.012.716.0
2017-May-18 10:08N 32°01' W 117°17'1 7.6
2017-May-18 10:00N 32°00' W 117°18'2100.4 190 / 121018.310.8 16.012.715.0
2017-May-18 09:58N 32°02' W 117°19'4 8.8
2017-May-18 09:30N 32°04' W 117°23'5 9.0
2017-May-18 09:00N 32°06' W 117°27'5 9.7
2017-May-18 08:30N 32°09' W 117°32'5 9.3
2017-May-18 08:00N 32°13' W 117°35'4 9.0
2017-May-18 07:30N 32°17' W 117°37'4 8.6
2017-May-18 07:00N 32°20' W 117°40'4 8.9
2017-May-18 06:30N 32°24' W 117°42'4 8.8
2017-May-18 06:00N 32°28' W 117°44'5304.1
2017-May-18 06:00N 32°24' W 117°42'   330 / 151019.310.8 15.011.615.0
Track history (hours):
 
Tides and Currents Weather Stations Pressure Air Temp Water Temp Dewpoint Dewpoint Depression Visibility Wind Speed Wind Dir Waves Ship Positions

Inspiration

Operator: Carnival Cruise Lines

Last reported at 2017-May-28 06:00 UTC. Time now 2017-May-28 06:48 UTC.
Position N 31°18' W 116°54'.

Type: Ship. MMSI: 309484000.

Wind from 340 at 25 knots

Barometer 1018.3 mb
Air temperature 15.0 ° C
Visibility: greater than 5.4 NM
Dewpoint 11.6 ° C
Water temperature 16.0 ° C

Date/timePositionNaut miles runAvg speedWind from/ knotsBaromVisibWave heightAir tempDewpointWater temp
2017-May-28 06:00N 31°18' W 116°54'738.8 340 / 251018.3 5.4 15.011.616.0
2017-May-28 05:49N 31°24' W 116°58'17 5.9
2017-May-28 03:00N 31°12' W 117°12'16 7.5 300 / 301022.310.8 17.013.715.0
2017-May-28 00:52N 31°11' W 117°31'5 6.5
2017-May-28 00:06N 31°09' W 117°36'7 6.0
2017-May-27 22:53N 31°11' W 117°44'3 6.7
2017-May-27 22:30N 31°13' W 117°47'5 6.6
2017-May-27 21:42N 31°18' W 117°47'3 6.5
2017-May-27 21:17N 31°21' W 117°48'2 6.5
2017-May-27 20:57N 31°23' W 117°48'3 6.4
2017-May-27 20:30N 31°26' W 117°49'4 6.4
2017-May-27 19:48N 31°27' W 117°54'2 6.6
2017-May-27 19:30N 31°27' W 117°56'3 6.4
2017-May-27 19:00N 31°29' W 117°59'3 6.1
2017-May-27 18:29N 31°32' W 118°00'3 6.3
2017-May-27 18:00N 31°34' W 117°58'5694.3
2017-May-27 18:00N 31°30' W 117°54'816.4 300 / 15 15.011.616.0
2017-May-27 17:30N 31°37' W 117°58'4 7.0
2017-May-27 17:00N 31°40' W 118°00'3 6.9
2017-May-27 16:30N 31°43' W 118°02'3 6.7
2017-May-27 16:00N 31°46' W 118°04'3 6.7
2017-May-27 15:30N 31°49' W 118°06'3 6.4
2017-May-27 15:00N 31°52' W 118°07'3 6.4
2017-May-27 14:30N 31°55' W 118°08'6 6.4
2017-May-27 13:30N 32°01' W 118°05'3 6.2
2017-May-27 13:00N 32°04' W 118°04'3 6.6
2017-May-27 12:30N 32°07' W 118°02'3 6.9
2017-May-27 12:00N 32°10' W 118°00'3 6.7
2017-May-27 11:30N 32°13' W 117°59'3 6.4
2017-May-27 11:00N 32°16' W 117°57'3 6.2
2017-May-27 10:30N 32°18' W 117°54'3 6.6
2017-May-27 10:00N 32°22' W 117°54'3 6.9
2017-May-27 09:30N 32°25' W 117°53'4 7.2
2017-May-27 09:00N 32°28' W 117°51'4 8.3
2017-May-27 08:30N 32°32' W 117°49'510.6
2017-May-27 08:00N 32°37' W 117°48'611.2
2017-May-27 07:30N 32°42' W 117°49'611.5
2017-May-27 07:00N 32°48' W 117°51'611.5
2017-May-27 06:30N 32°53' W 117°54'611.2
2017-May-27 06:00N 32°58' W 117°56'2162.0
2017-May-27 06:00N 33°00' W 117°54'510.4 280 / 151018.3
2017-May-27 05:30N 33°03' W 117°58'510.4
2017-May-27 05:00N 33°08' W 118°01'510.4
2017-May-27 04:30N 33°13' W 118°03'510.3
2017-May-27 04:00N 33°18' W 118°05'510.5
2017-May-27 03:30N 33°23' W 118°08'510.8
2017-May-27 03:00N 33°28' W 118°10'510.7
2017-May-27 02:30N 33°33' W 118°12'510.6
2017-May-27 02:00N 33°38' W 118°13'5 9.1
2017-May-27 01:29N 33°43' W 118°11'2 0.7
2017-May-26 22:03N 33°45' W 118°11'0 0.0
2017-May-26 21:57N 33°45' W 118°11'0 0.0
2017-May-26 20:39N 33°45' W 118°11'0 0.0
2017-May-26 20:20N 33°45' W 118°11'0 0.0
2017-May-26 19:38N 33°45' W 118°11'0 0.0
2017-May-26 19:14N 33°45' W 118°11'0 0.0
2017-May-26 17:37N 33°45' W 118°11'0 0.0
2017-May-26 17:07N 33°45' W 118°11'0 0.0
2017-May-26 16:55N 33°45' W 118°11'0 0.0
2017-May-26 15:55N 33°45' W 118°11'0 0.0
2017-May-26 15:30N 33°45' W 118°11'0 0.0
2017-May-26 14:48N 33°45' W 118°11'0 0.0
2017-May-26 14:30N 33°45' W 118°11'0 0.0
2017-May-26 13:30N 33°45' W 118°11'0 0.0
2017-May-26 12:59N 33°45' W 118°11'0 0.1
2017-May-26 12:31N 33°45' W 118°11'1 1.4
2017-May-26 12:00N 33°44' W 118°11'4 9.0
2017-May-26 11:30N 33°40' W 118°10'4 8.8
2017-May-26 11:00N 33°36' W 118°10'611.3
2017-May-26 10:30N 33°30' W 118°07'713.7
2017-May-26 10:00N 33°24' W 118°05'816.4
2017-May-26 09:30N 33°16' W 118°01'816.5
2017-May-26 09:01N 33°09' W 117°57'815.9
2017-May-26 08:30N 33°01' W 117°53'815.6
2017-May-26 08:01N 32°54' W 117°51'815.7
2017-May-26 07:30N 32°46' W 117°48'815.9
2017-May-26 07:00N 32°39' W 117°45'816.0
2017-May-26 06:30N 32°32' W 117°41'815.9
2017-May-26 06:01N 32°25' W 117°37'9511.0
2017-May-26 06:00N 32°18' W 117°30'2 3.5 300 / 161018.3 5.4
2017-May-26 05:31N 32°18' W 117°32'815.6
2017-May-26 05:01N 32°11' W 117°27'815.5
2017-May-26 04:30N 32°05' W 117°21'915.2
2017-May-26 03:53N 32°00' W 117°12'2814.9
2017-May-26 02:00N 31°48' W 116°42'312.6 300 / 81021.310.8 18.013.117.0
2017-May-26 01:47N 31°50' W 116°39'1 0.1
2017-May-25 13:56N 31°50' W 116°40'4 8.7
2017-May-25 13:30N 31°51' W 116°45'6 8.2
2017-May-25 12:48N 31°54' W 116°50'3 8.2
2017-May-25 12:25N 31°55' W 116°54'6 8.2
2017-May-25 11:43N 31°56' W 117°01'2 8.7
2017-May-25 11:28N 31°57' W 117°03'4 8.9
2017-May-25 11:00N 31°58' W 117°08'5 9.1
2017-May-25 10:30N 31°59' W 117°13'5 9.1
2017-May-25 10:00N 32°01' W 117°17'5 9.1
2017-May-25 09:30N 32°04' W 117°21'4 8.8
2017-May-25 09:00N 32°06' W 117°26'4284.4
2017-May-25 09:00N 32°06' W 117°30'2 4.2 270 / 201017.210.8
2017-May-25 08:30N 32°08' W 117°30'4 8.0
2017-May-25 08:01N 32°11' W 117°34'4 8.4
2017-May-25 07:30N 32°14' W 117°36'4 8.5
2017-May-25 07:00N 32°18' W 117°38'4 8.3
2017-May-25 06:30N 32°22' W 117°41'4 8.3
2017-May-25 06:00N 32°26' W 117°43'2107.0
2017-May-25 06:00N 32°24' W 117°42'612.2 300 / 51017.3 15.011.615.0
2017-May-25 05:30N 32°29' W 117°45'510.2
2017-May-25 05:00N 32°34' W 117°48'510.7
2017-May-25 04:30N 32°39' W 117°51'511.0
2017-May-25 04:00N 32°44' W 117°53'611.2
2017-May-25 03:30N 32°49' W 117°56'611.0
2017-May-25 03:00N 32°54' W 117°58'4221.3
2017-May-25 03:00N 32°54' W 117°54'815.7 300 / 151020.310.8 17.013.715.0
2017-May-25 02:30N 32°59' W 118°01'510.6
2017-May-25 02:00N 33°04' W 118°03'510.6
2017-May-25 01:30N 33°08' W 118°07'510.7
2017-May-25 01:00N 33°12' W 118°11'610.8
2017-May-25 00:30N 33°17' W 118°14'5 9.4
2017-May-25 00:00N 33°21' W 118°18'1 1.8
2017-May-24 23:29N 33°21' W 118°19'0 0.1
2017-May-24 22:49N 33°21' W 118°19'0 0.1
2017-May-24 22:25N 33°21' W 118°19'0 0.1
2017-May-24 21:58N 33°21' W 118°19'0 0.1
2017-May-24 21:28N 33°21' W 118°19'0 0.1
2017-May-24 20:58N 33°21' W 118°19'0 0.0
2017-May-24 20:30N 33°21' W 118°19'0 0.1
2017-May-24 20:00N 33°21' W 118°19'0 0.1
2017-May-24 19:24N 33°21' W 118°19'0 0.0
2017-May-24 19:00N 33°21' W 118°19'0 0.0
2017-May-24 18:29N 33°21' W 118°19'0 0.0
2017-May-24 17:59N 33°21' W 118°19'0 0.0
2017-May-24 17:29N 33°21' W 118°19'0 0.0
2017-May-24 16:59N 33°21' W 118°19'0 0.0
2017-May-24 16:29N 33°21' W 118°19'0 0.0
2017-May-24 15:58N 33°21' W 118°19'0 0.0
2017-May-24 15:28N 33°21' W 118°19'0 0.0
2017-May-24 14:55N 33°21' W 118°19'1 1.1
2017-May-24 14:00N 33°20' W 118°18'3 6.2
2017-May-24 13:30N 33°18' W 118°17'3 6.8
2017-May-24 13:00N 33°14' W 118°16'3 6.6
2017-May-24 12:30N 33°11' W 118°16'3 6.8
2017-May-24 12:00N 33°07' W 118°16'3 6.8
2017-May-24 11:30N 33°05' W 118°13'3 6.8
2017-May-24 11:00N 33°02' W 118°10'3 6.8
2017-May-24 10:30N 32°60' W 118°08'3 6.7
2017-May-24 10:00N 32°57' W 118°05'5336.3
2017-May-24 10:00N 32°54' W 118°00'2 3.5 310 / 101018.3 13.0 9.416.0
2017-May-24 09:30N 32°55' W 118°02'4 7.1
2017-May-24 09:00N 32°52' W 117°59'3 6.5
2017-May-24 08:30N 32°49' W 117°57'3 6.5
2017-May-24 08:00N 32°47' W 117°54'3 6.8
2017-May-24 07:30N 32°44' W 117°52'3 6.9
2017-May-24 07:00N 32°42' W 117°49'3 6.9
2017-May-24 06:30N 32°39' W 117°47'3 6.8
2017-May-24 06:00N 32°36' W 117°48'3 7.0
2017-May-24 05:30N 32°32' W 117°50'3 6.8
2017-May-24 05:00N 32°29' W 117°51'3177.4
2017-May-24 05:00N 32°30' W 117°48'611.6 290 / 151018.3 5.4 15.011.615.0
2017-May-24 04:30N 32°26' W 117°53'3 6.8
2017-May-24 04:00N 32°23' W 117°55'3 6.5
2017-May-24 03:30N 32°20' W 117°56'3 6.4
2017-May-24 03:00N 32°17' W 117°58'6389.5
2017-May-24 03:00N 32°12' W 117°54'510.2 320 / 121017.2 5.4 16.012.715.0
2017-May-24 02:30N 32°14' W 117°59'3 6.7
2017-May-24 02:00N 32°11' W 118°01'3 6.9
2017-May-24 01:30N 32°08' W 118°03'4 7.3
2017-May-24 01:00N 32°05' W 118°04'4 7.5
2017-May-24 00:30N 32°01' W 118°06'4 7.4
2017-May-24 00:00N 31°58' W 118°08'3 6.9
2017-May-23 23:30N 31°55' W 118°09'3 6.7
2017-May-23 23:00N 31°52' W 118°11'3 6.8
2017-May-23 22:30N 31°49' W 118°13'3 6.6
2017-May-23 22:00N 31°46' W 118°14'4259.5
2017-May-23 22:00N 31°42' W 118°12'3 6.4 050 / 201018.327.0 15.011.616.0
2017-May-23 21:30N 31°42' W 118°16'4 8.2
2017-May-23 21:00N 31°39' W 118°13'3 6.7
2017-May-23 20:30N 31°37' W 118°09'3 6.3
2017-May-23 20:00N 31°36' W 118°06'3 6.3
2017-May-23 19:30N 31°34' W 118°03'3 6.7
2017-May-23 19:00N 31°32' W 117°60'3 7.0
2017-May-23 18:30N 31°30' W 117°56'3 6.8
2017-May-23 18:00N 31°29' W 117°53'3 6.2
2017-May-23 17:30N 31°30' W 117°49'3 6.4
2017-May-23 17:00N 31°33' W 117°48'3 6.7
2017-May-23 16:30N 31°36' W 117°48'3 6.8
2017-May-23 16:00N 31°40' W 117°48'3 6.9
2017-May-23 15:30N 31°43' W 117°48'4 7.0
2017-May-23 15:00N 31°47' W 117°48'5328.2
2017-May-23 15:00N 31°48' W 117°42'510.5 340 / 101017.2 5.4 17.013.715.0
2017-May-23 14:30N 31°50' W 117°47'7 7.4
2017-May-23 13:30N 31°57' W 117°47'4 7.1
2017-May-23 13:00N 32°01' W 117°47'3 6.4
2017-May-23 12:30N 32°04' W 117°47'3 6.4
2017-May-23 12:00N 32°07' W 117°46'3 6.7
2017-May-23 11:30N 32°11' W 117°46'3 6.8
2017-May-23 11:00N 32°14' W 117°46'3 6.6
2017-May-23 10:30N 32°17' W 117°46'3 6.8
2017-May-23 10:00N 32°21' W 117°46'3 6.8
2017-May-23 09:30N 32°24' W 117°45'3 6.7
2017-May-23 09:00N 32°28' W 117°45'4 8.2
2017-May-23 08:30N 32°32' W 117°45'510.7
2017-May-23 08:00N 32°37' W 117°45'510.8
2017-May-23 07:30N 32°42' W 117°47'510.8
2017-May-23 07:00N 32°47' W 117°49'510.8
2017-May-23 06:30N 32°52' W 117°51'510.9
2017-May-23 06:00N 32°58' W 117°53'5348.7
2017-May-23 06:00N 32°54' W 117°48'1021.6 290 / 101017.2 5.4 15.011.616.0
2017-May-23 05:30N 33°03' W 117°55'510.6
2017-May-23 05:00N 33°07' W 117°58'510.5
2017-May-23 04:30N 33°12' W 118°01'510.4
2017-May-23 04:00N 33°16' W 118°04'510.6
2017-May-23 03:30N 33°21' W 118°07'511.0
2017-May-23 03:00N 33°26' W 118°09'611.1
2017-May-23 02:30N 33°31' W 118°12'611.1
2017-May-23 02:00N 33°37' W 118°13'510.0
2017-May-23 01:30N 33°42' W 118°11'3 6.7
2017-May-23 01:00N 33°45' W 118°11'0 0.1
2017-May-23 00:28N 33°45' W 118°11'0 0.0
2017-May-23 00:00N 33°45' W 118°11'0 0.0
2017-May-22 23:28N 33°45' W 118°11'0 0.0
2017-May-22 22:58N 33°45' W 118°11'0 0.0
2017-May-22 22:28N 33°45' W 118°11'0 0.0
2017-May-22 22:01N 33°45' W 118°11'0 0.0
2017-May-22 21:31N 33°45' W 118°11'0 0.0
2017-May-22 21:01N 33°45' W 118°11'0 0.0
2017-May-22 20:31N 33°45' W 118°11'0 0.0
2017-May-22 20:01N 33°45' W 118°11'0 0.0
2017-May-22 19:31N 33°45' W 118°11'0 0.0
2017-May-22 19:01N 33°45' W 118°11'0 0.0
2017-May-22 18:30N 33°45' W 118°11'0 0.0
2017-May-22 18:00N 33°45' W 118°11'0 0.0
2017-May-22 17:31N 33°45' W 118°11'0 0.0
2017-May-22 17:00N 33°45' W 118°11'0 0.0
2017-May-22 16:30N 33°45' W 118°11'0 0.0
2017-May-22 16:01N 33°45' W 118°11'0 0.0
2017-May-22 15:31N 33°45' W 118°11'0 0.0
2017-May-22 15:00N 33°45' W 118°11'5366.8
2017-May-22 15:00N 33°42' W 118°06'5 5.4 1020.3 2.2 17.013.715.0
2017-May-22 14:01N 33°45' W 118°11'0 0.0
2017-May-22 13:31N 33°45' W 118°11'0 0.0
2017-May-22 13:00N 33°45' W 118°11'0 0.3
2017-May-22 12:30N 33°45' W 118°11'1 1.7
2017-May-22 12:01N 33°44' W 118°11'4 7.3
2017-May-22 11:30N 33°40' W 118°11'5 9.5
2017-May-22 11:01N 33°36' W 118°10'510.4
2017-May-22 10:30N 33°31' W 118°08'510.5
2017-May-22 10:00N 33°26' W 118°05'510.4
2017-May-22 09:31N 33°21' W 118°03'714.7
2017-May-22 09:00N 33°14' W 118°01'816.4
2017-May-22 08:30N 33°06' W 117°57'816.0
2017-May-22 08:00N 32°59' W 117°54'815.9
2017-May-22 07:30N 32°51' W 117°51'816.0
2017-May-22 07:00N 32°44' W 117°47'815.9
2017-May-22 06:30N 32°37' W 117°44'815.8
2017-May-22 06:00N 32°29' W 117°40'815.8
2017-May-22 05:30N 32°23' W 117°35'815.5
2017-May-22 05:00N 32°16' W 117°30'2112.3
2017-May-22 05:00N 32°18' W 117°30'918.7 300 / 121018.3 5.4 15.011.615.0
2017-May-22 04:30N 32°11' W 117°23'815.4
2017-May-22 04:00N 32°07' W 117°15'815.4
2017-May-22 03:30N 32°02' W 117°08'715.0
2017-May-22 03:00N 31°59' W 117°00'714.5
2017-May-22 02:30N 31°55' W 116°53'714.3
2017-May-22 02:00N 31°52' W 116°45'6 0.5
2017-May-21 14:00N 31°50' W 116°39'3 7.0
2017-May-21 13:30N 31°50' W 116°43'3 6.3
2017-May-21 13:00N 31°50' W 116°47'3 6.4
2017-May-21 12:28N 31°50' W 116°51'3 7.0
2017-May-21 12:00N 31°48' W 116°54'2190.6 320 / 141021.310.8 17.013.716.0
2017-May-21 11:59N 31°50' W 116°55'3 6.8
2017-May-21 11:30N 31°50' W 116°59'3 6.8
2017-May-21 11:00N 31°50' W 117°03'3 6.8
2017-May-21 10:30N 31°50' W 117°07'3 6.7
2017-May-21 10:00N 31°50' W 117°10'3 5.8
2017-May-21 09:30N 31°48' W 117°13'3 6.4
2017-May-21 09:00N 31°45' W 117°12'3 6.4
2017-May-21 08:30N 31°42' W 117°10'3 6.7
2017-May-21 08:00N 31°39' W 117°08'3 6.5
2017-May-21 07:30N 31°36' W 117°07'3 6.5
2017-May-21 07:00N 31°33' W 117°05'3 6.4
2017-May-21 06:30N 31°30' W 117°04'3 6.5
2017-May-21 06:00N 31°28' W 117°01'161040.9
2017-May-21 06:00N 31°12' W 117°00'1327.0 340 / 151018.310.8 16.012.716.0
2017-May-21 05:30N 31°25' W 116°60'3 6.5
2017-May-21 05:00N 31°22' W 116°59'3 6.4
2017-May-21 04:30N 31°19' W 116°57'3 5.9
2017-May-21 04:00N 31°17' W 116°59'3 6.6
2017-May-21 03:30N 31°16' W 117°03'3 6.6
2017-May-21 03:00N 31°15' W 117°07'4341.3
2017-May-21 03:00N 31°12' W 117°06'5 9.9 290 / 151022.310.8 18.013.116.0
2017-May-21 02:30N 31°15' W 117°10'3 6.6
2017-May-21 02:00N 31°14' W 117°14'3 6.5
2017-May-21 01:30N 31°14' W 117°18'3 6.5
2017-May-21 01:00N 31°13' W 117°22'3 6.4
2017-May-21 00:30N 31°12' W 117°25'3 6.4
2017-May-21 00:00N 31°12' W 117°29'3 6.6
2017-May-20 23:30N 31°11' W 117°33'3 6.3
2017-May-20 23:00N 31°10' W 117°36'3 6.4
2017-May-20 22:31N 31°09' W 117°40'3 6.4
2017-May-20 22:00N 31°09' W 117°44'3 5.7
2017-May-20 21:30N 31°11' W 117°45'3 6.7
2017-May-20 21:00N 31°15' W 117°46'4 6.5
2017-May-20 20:21N 31°18' W 117°49'2 6.6
2017-May-20 20:00N 31°18' W 117°52'3 6.7
2017-May-20 19:30N 31°19' W 117°56'3 6.7
2017-May-20 19:00N 31°19' W 117°59'4 7.1
2017-May-20 18:30N 31°21' W 118°03'3 6.8
2017-May-20 18:00N 31°24' W 118°05'4291.7
2017-May-20 18:00N 31°24' W 118°00'612.1 350 / 151018.3 16.012.716.0
2017-May-20 17:30N 31°27' W 118°06'3 6.9
2017-May-20 17:00N 31°31' W 118°06'4 7.0
2017-May-20 16:30N 31°34' W 118°06'3 6.9
2017-May-20 16:00N 31°38' W 118°07'3 6.8
2017-May-20 15:30N 31°41' W 118°07'3 6.7
2017-May-20 15:00N 31°44' W 118°07'7 6.8
2017-May-20 14:00N 31°51' W 118°08'3 6.6
2017-May-20 13:30N 31°55' W 118°08'3 6.5
2017-May-20 13:00N 31°58' W 118°07'3 6.6
2017-May-20 12:30N 32°01' W 118°05'3 6.6
2017-May-20 12:00N 32°04' W 118°04'3 6.5
2017-May-20 11:30N 32°07' W 118°02'4 7.2
2017-May-20 11:00N 32°10' W 118°01'510.4
2017-May-20 10:30N 32°15' W 117°58'510.5
2017-May-20 10:00N 32°20' W 117°55'510.5
2017-May-20 09:30N 32°24' W 117°53'510.7
2017-May-20 09:00N 32°29' W 117°50'510.8
2017-May-20 08:30N 32°34' W 117°48'510.1
2017-May-20 08:00N 32°39' W 117°47'510.4
2017-May-20 07:30N 32°44' W 117°49'510.5
2017-May-20 07:00N 32°49' W 117°52'510.6
2017-May-20 06:30N 32°54' W 117°54'510.6
2017-May-20 06:00N 32°59' W 117°56'5316.4
2017-May-20 06:00N 32°54' W 117°54'1021.5 350 / 51018.3 15.011.615.0
2017-May-20 05:30N 33°04' W 117°59'510.6
2017-May-20 05:00N 33°09' W 118°01'510.6
2017-May-20 04:30N 33°13' W 118°04'510.9
2017-May-20 04:00N 33°18' W 118°06'611.0
2017-May-20 03:30N 33°24' W 118°08'510.7
2017-May-20 03:00N 33°29' W 118°10'510.9
2017-May-20 02:30N 33°34' W 118°12'510.7
2017-May-20 02:00N 33°39' W 118°12'5 9.4
2017-May-20 01:30N 33°44' W 118°11'1 2.5
2017-May-20 01:00N 33°45' W 118°11'0 0.0
2017-May-20 00:30N 33°45' W 118°11'0 0.0
2017-May-20 00:00N 33°45' W 118°11'0 0.0
2017-May-19 23:30N 33°45' W 118°11'0 0.0
2017-May-19 22:59N 33°45' W 118°11'0 0.0
2017-May-19 22:29N 33°45' W 118°11'0 0.0
2017-May-19 21:59N 33°45' W 118°11'0 0.0
2017-May-19 21:29N 33°45' W 118°11'0 0.0
2017-May-19 20:59N 33°45' W 118°11'0 0.0
2017-May-19 20:28N 33°45' W 118°11'0 0.0
2017-May-19 19:58N 33°45' W 118°11'0 0.0
2017-May-19 19:28N 33°45' W 118°11'0 0.0
2017-May-19 18:58N 33°45' W 118°11'0 0.0
2017-May-19 18:30N 33°45' W 118°11'0 0.0
2017-May-19 18:00N 33°45' W 118°11'0 0.0
2017-May-19 17:30N 33°45' W 118°11'0 0.0
2017-May-19 17:00N 33°45' W 118°11'0 0.0
2017-May-19 16:30N 33°45' W 118°11'0 0.0
2017-May-19 15:59N 33°45' W 118°11'0 0.0
2017-May-19 15:29N 33°45' W 118°11'0 0.0
2017-May-19 14:59N 33°45' W 118°11'5 5.3
2017-May-19 14:00N 33°42' W 118°06'579.1 1021.310.8 17.013.715.0
2017-May-19 13:55N 33°45' W 118°11'0 0.0
2017-May-19 13:28N 33°45' W 118°11'0 0.0
2017-May-19 12:49N 33°45' W 118°11'0 0.0
2017-May-19 12:30N 33°45' W 118°11'0 0.8
2017-May-19 12:00N 33°45' W 118°11'4 8.6
2017-May-19 11:30N 33°40' W 118°11'5 9.6
2017-May-19 11:01N 33°36' W 118°09'510.3
2017-May-19 10:30N 33°31' W 118°07'510.2
2017-May-19 10:00N 33°26' W 118°05'612.4
2017-May-19 09:30N 33°20' W 118°03'816.2
2017-May-19 09:01N 33°13' W 117°59'816.2
2017-May-19 08:30N 33°05' W 117°56'816.1
2017-May-19 08:01N 32°58' W 117°53'816.1
2017-May-19 07:31N 32°50' W 117°50'816.0
2017-May-19 07:01N 32°42' W 117°47'815.7
2017-May-19 06:31N 32°35' W 117°43'815.5
2017-May-19 06:01N 32°28' W 117°39'13744.5
2017-May-19 06:00N 32°18' W 117°30'510.4 280 / 151018.3 16.012.716.0
2017-May-19 05:30N 32°21' W 117°34'815.2
2017-May-19 05:01N 32°15' W 117°29'815.3
2017-May-19 04:31N 32°10' W 117°23'815.2
2017-May-19 04:01N 32°05' W 117°16'815.1
2017-May-19 03:30N 32°01' W 117°09'14 0.9
2017-May-18 12:00N 31°54' W 116°54'2111.2 290 / 101021.310.8 16.012.716.0
2017-May-18 10:08N 32°01' W 117°17'1 7.6
2017-May-18 10:00N 32°00' W 117°18'2100.4 190 / 121018.310.8 16.012.715.0
2017-May-18 09:58N 32°02' W 117°19'4 8.8
2017-May-18 09:30N 32°04' W 117°23'5 9.0
2017-May-18 09:00N 32°06' W 117°27'5 9.7
2017-May-18 08:30N 32°09' W 117°32'5 9.3
2017-May-18 08:00N 32°13' W 117°35'4 9.0
2017-May-18 07:30N 32°17' W 117°37'4 8.6
2017-May-18 07:00N 32°20' W 117°40'4 8.9
2017-May-18 06:30N 32°24' W 117°42'4 8.8
2017-May-18 06:00N 32°28' W 117°44'5304.1
2017-May-18 06:00N 32°24' W 117°42'   330 / 151019.310.8 15.011.615.0

Dump ship's entire track history